Time;durP1;ratioP1;P1;durP2;ratioP2;P2;SDS_P1;SDS_P2;PMS_P1;PMS_P2;Temp;Humidity;BMP_temperature;BMP_pressure;BME280_temperature;BME280_humidity;BME280_pressure;Samples;Min_cycle;Max_cycle;Signal;HPM_P1;HPM_P2
2023/10/09 00:00:50;;;;;;;5.40;4.10;;;17.20;99.90;;;;;;5027023;28;20178;-77
2023/10/09 00:03:18;;;;;;;7.97;4.13;;;17.20;99.90;;;;;;5032995;28;20202;-78
2023/10/09 00:05:46;;;;;;;8.52;4.70;;;17.20;99.90;;;;;;5045099;28;20235;-77
2023/10/09 00:08:18;;;;;;;7.53;3.95;;;17.20;99.90;;;;;;5032879;28;20206;-75
2023/10/09 00:10:53;;;;;;;5.88;3.92;;;17.20;99.90;;;;;;5034052;28;20170;-76
2023/10/09 00:13:27;;;;;;;6.65;3.83;;;17.30;99.90;;;;;;5030553;28;20186;-77
2023/10/09 00:15:53;;;;;;;8.02;4.18;;;17.30;99.90;;;;;;5032579;28;20206;-76
2023/10/09 00:18:28;;;;;;;8.00;4.50;;;17.30;99.90;;;;;;5026895;28;20270;-77
2023/10/09 00:21:10;;;;;;;6.47;3.85;;;17.30;99.90;;;;;;5034158;28;20178;-73
2023/10/09 00:23:41;;;;;;;5.97;3.97;;;17.30;99.90;;;;;;5035191;28;20206;-75
2023/10/09 00:26:31;;;;;;;7.05;4.10;;;17.30;99.90;;;;;;5023354;28;20320;-72
2023/10/09 00:28:53;;;;;;;5.03;3.60;;;17.20;99.90;;;;;;5021138;28;20210;-77
2023/10/09 00:31:33;;;;;;;6.38;4.30;;;17.30;99.90;;;;;;5021238;28;20174;-77
2023/10/09 00:34:01;;;;;;;6.90;4.05;;;17.30;99.90;;;;;;5032129;28;20178;-77
2023/10/09 00:36:28;;;;;;;7.00;4.47;;;17.30;99.90;;;;;;5035450;28;20201;-77
2023/10/09 00:38:54;;;;;;;6.40;4.38;;;17.30;99.90;;;;;;5018526;28;20213;-77
2023/10/09 00:41:24;;;;;;;6.13;4.47;;;17.30;99.90;;;;;;5049810;28;20202;-77
2023/10/09 00:43:53;;;;;;;7.65;4.20;;;17.30;99.90;;;;;;5022000;28;20194;-77
2023/10/09 00:48:55;;;;;;;6.40;4.20;;;17.20;99.90;;;;;;5035858;28;20229;-77
2023/10/09 00:51:22;;;;;;;6.45;4.00;;;17.20;99.90;;;;;;5020867;28;20175;-74
2023/10/09 00:53:52;;;;;;;5.95;4.20;;;17.20;99.90;;;;;;5040373;28;20182;-74
2023/10/09 00:58:59;;;;;;;6.30;4.07;;;17.20;99.90;;;;;;5021496;28;20194;-78
2023/10/09 01:01:34;;;;;;;7.28;4.20;;;17.20;99.90;;;;;;5018014;28;20206;-78
2023/10/09 01:04:12;;;;;;;6.90;4.25;;;17.20;99.90;;;;;;5035257;28;20283;-77
2023/10/09 01:06:44;;;;;;;7.15;4.40;;;17.10;99.90;;;;;;5017574;28;20210;-77
2023/10/09 01:09:20;;;;;;;7.22;4.22;;;17.10;99.90;;;;;;5027103;28;20280;-78
2023/10/09 01:12:03;;;;;;;5.63;3.78;;;17.10;99.90;;;;;;5031151;28;20217;-77
2023/10/09 01:14:31;;;;;;;5.20;3.80;;;17.10;99.90;;;;;;5030519;28;20206;-78
2023/10/09 01:16:57;;;;;;;8.68;4.25;;;17.10;99.90;;;;;;5027137;28;20170;-77
2023/10/09 01:19:27;;;;;;;8.52;4.65;;;17.10;99.90;;;;;;5015152;28;20170;-77
2023/10/09 01:22:04;;;;;;;5.90;4.53;;;17.00;99.90;;;;;;5015312;28;20195;-77
2023/10/09 01:24:35;;;;;;;6.57;3.92;;;17.00;99.90;;;;;;5041840;28;20170;-77
2023/10/09 01:27:04;;;;;;;6.03;4.28;;;17.00;99.90;;;;;;5035200;28;20166;-76
2023/10/09 01:29:30;;;;;;;6.38;4.28;;;16.90;99.90;;;;;;5038482;28;20174;-77
2023/10/09 01:32:01;;;;;;;6.43;4.32;;;16.90;99.90;;;;;;5036556;28;20185;-75
2023/10/09 01:34:49;;;;;;;6.35;4.35;;;16.90;99.90;;;;;;5034665;28;20216;-77
2023/10/09 01:37:38;;;;;;;5.90;4.20;;;16.80;99.90;;;;;;5027976;28;20190;-77
2023/10/09 01:42:55;;;;;;;6.05;3.97;;;16.80;99.90;;;;;;5030489;28;20213;-75
2023/10/09 01:47:51;;;;;;;5.38;4.00;;;16.70;99.90;;;;;;5030623;28;20186;-77
2023/10/09 01:50:24;;;;;;;7.88;4.18;;;16.60;99.90;;;;;;5035202;28;20186;-76
2023/10/09 01:52:56;;;;;;;7.00;3.95;;;16.60;99.90;;;;;;5034968;28;20204;-76
2023/10/09 01:55:39;;;;;;;5.75;4.30;;;16.60;99.90;;;;;;5034558;28;20212;-77
2023/10/09 02:00:49;;;;;;;7.10;3.95;;;16.60;99.90;;;;;;5031357;28;20209;-78
2023/10/09 02:03:15;;;;;;;6.50;3.85;;;16.60;99.90;;;;;;5030474;28;20198;-77
2023/10/09 02:05:43;;;;;;;5.53;3.85;;;16.60;99.90;;;;;;5015207;28;20175;-72
2023/10/09 02:08:11;;;;;;;6.70;4.22;;;16.60;99.90;;;;;;5014960;28;20170;-77
2023/10/09 02:10:39;;;;;;;6.15;3.92;;;16.60;99.90;;;;;;5026524;28;20174;-78
2023/10/09 02:13:06;;;;;;;5.88;3.83;;;16.60;99.90;;;;;;5030549;28;20203;-77
2023/10/09 02:21:00;;;;;;;5.47;3.97;;;16.70;99.90;;;;;;5029657;28;20198;-73
2023/10/09 02:26:25;;;;;;;4.93;3.63;;;16.70;99.90;;;;;;5038524;28;20193;-77
2023/10/09 02:29:15;;;;;;;6.18;3.80;;;16.70;99.90;;;;;;5036183;28;20178;-78
2023/10/09 02:31:51;;;;;;;6.40;3.90;;;16.70;99.90;;;;;;5033572;28;20458;-78
2023/10/09 02:34:25;;;;;;;5.35;4.00;;;16.70;99.90;;;;;;5028656;28;20216;-78
2023/10/09 02:37:05;;;;;;;6.75;3.80;;;16.70;99.90;;;;;;5030960;28;20181;-77
2023/10/09 02:39:43;;;;;;;4.90;3.47;;;16.70;99.90;;;;;;5019941;28;20202;-78
2023/10/09 02:44:46;;;;;;;5.40;3.42;;;16.70;99.90;;;;;;5027535;28;20216;-77
2023/10/09 02:47:20;;;;;;;6.03;3.78;;;16.70;99.90;;;;;;5035003;28;20253;-78
2023/10/09 02:49:48;;;;;;;6.50;3.42;;;16.70;99.90;;;;;;5029300;28;20177;-76
2023/10/09 02:52:18;;;;;;;6.68;4.10;;;16.70;99.90;;;;;;5050901;28;20198;-77
2023/10/09 02:54:57;;;;;;;5.78;3.70;;;16.70;99.90;;;;;;5036686;28;20173;-78
2023/10/09 02:57:36;;;;;;;9.07;3.95;;;16.70;99.90;;;;;;5027371;28;20202;-76
2023/10/09 03:00:03;;;;;;;5.28;3.60;;;16.70;99.90;;;;;;5028094;28;20190;-76
2023/10/09 03:02:31;;;;;;;7.47;4.32;;;16.70;99.90;;;;;;5036848;28;20193;-76
2023/10/09 03:04:58;;;;;;;5.97;4.05;;;16.70;99.90;;;;;;5022567;28;20273;-77
2023/10/09 03:07:26;;;;;;;5.07;3.53;;;16.70;99.90;;;;;;5037259;28;20174;-77
2023/10/09 03:09:52;;;;;;;5.57;3.88;;;16.70;99.90;;;;;;5048575;28;20205;-78
2023/10/09 03:12:18;;;;;;;6.03;3.95;;;16.70;99.90;;;;;;5025253;28;20269;-78
2023/10/09 03:14:46;;;;;;;5.18;3.95;;;16.70;99.90;;;;;;5036944;28;20181;-77
2023/10/09 03:17:14;;;;;;;6.25;3.72;;;16.70;99.90;;;;;;5036651;28;20201;-77
2023/10/09 03:19:43;;;;;;;5.10;3.80;;;16.70;99.90;;;;;;5036663;28;20206;-78
2023/10/09 03:22:11;;;;;;;6.07;3.88;;;16.70;99.90;;;;;;5030830;28;20228;-78
2023/10/09 03:24:37;;;;;;;5.22;3.67;;;16.70;99.90;;;;;;5020779;28;20186;-78
2023/10/09 03:27:03;;;;;;;6.53;3.80;;;16.70;99.90;;;;;;5034754;28;20173;-77
2023/10/09 03:29:29;;;;;;;6.50;4.15;;;16.70;99.90;;;;;;5036965;28;20264;-78
2023/10/09 03:31:58;;;;;;;7.38;5.60;;;16.70;99.90;;;;;;5035968;28;20328;-79
2023/10/09 03:34:27;;;;;;;9.20;6.18;;;16.70;99.90;;;;;;5036626;28;20263;-76
2023/10/09 03:37:03;;;;;;;6.88;4.53;;;16.70;99.90;;;;;;5064084;23;20462;-66
2023/10/09 03:39:38;;;;;;;6.53;4.43;;;16.60;99.90;;;;;;5013977;28;20262;-66
2023/10/09 03:42:05;;;;;;;6.97;5.07;;;16.70;99.90;;;;;;5013405;28;20175;-65
2023/10/09 03:44:36;;;;;;;9.50;6.00;;;16.70;99.90;;;;;;5016649;28;20177;-65
2023/10/09 03:47:09;;;;;;;7.78;5.20;;;16.70;99.90;;;;;;5010902;28;20305;-65
2023/10/09 03:49:38;;;;;;;7.15;5.00;;;16.70;99.90;;;;;;5019824;28;20175;-65
2023/10/09 03:52:08;;;;;;;6.97;4.57;;;16.80;99.90;;;;;;5020447;28;20174;-65
2023/10/09 03:54:35;;;;;;;6.15;3.90;;;16.80;99.90;;;;;;5032704;28;20170;-65
2023/10/09 03:57:06;;;;;;;6.40;4.05;;;16.80;99.90;;;;;;5016635;28;20265;-65
2023/10/09 03:59:32;;;;;;;11.73;8.43;;;16.80;99.90;;;;;;5012935;28;20229;-65
2023/10/09 04:02:00;;;;;;;8.05;5.55;;;16.80;99.90;;;;;;5014610;28;20203;-66
2023/10/09 04:04:28;;;;;;;7.53;5.05;;;16.80;99.90;;;;;;5015690;28;20262;-66
2023/10/09 04:06:54;;;;;;;6.45;4.43;;;16.70;99.90;;;;;;5016566;28;20193;-66
2023/10/09 04:12:12;;;;;;;5.20;3.65;;;16.80;99.90;;;;;;5025049;28;20209;-66
2023/10/09 04:14:43;;;;;;;6.10;4.05;;;16.80;99.90;;;;;;5020792;28;20253;-66
2023/10/09 04:17:56;;;;;;;8.68;3.80;;;16.80;99.90;;;;;;4996618;28;20349;-66
2023/10/09 04:22:50;;;;;;;6.10;3.70;;;16.80;99.90;;;;;;5036667;28;20220;-65
2023/10/09 04:25:29;;;;;;;5.18;3.72;;;16.70;99.90;;;;;;5035776;28;20165;-65
2023/10/09 04:28:18;;;;;;;5.15;3.75;;;16.70;99.90;;;;;;5022790;28;20182;-65
2023/10/09 04:30:53;;;;;;;6.95;4.20;;;16.70;99.90;;;;;;5015756;28;20179;-65
2023/10/09 04:36:16;;;;;;;7.70;3.60;;;16.70;99.90;;;;;;5016300;28;20321;-65
2023/10/09 04:41:32;;;;;;;5.20;3.75;;;16.70;99.90;;;;;;5016165;28;20217;-65
2023/10/09 04:44:19;;;;;;;5.90;3.63;;;16.70;99.90;;;;;;5012403;28;20249;-65
2023/10/09 04:52:51;;;;;;;11.43;7.35;;;16.70;99.90;;;;;;5012321;28;20262;-65
2023/10/09 04:58:25;;;;;;;6.85;4.80;;;16.80;99.90;;;;;;4996343;28;20172;-65
2023/10/09 05:02:57;;;;;;;5.43;4.13;;;16.80;99.90;;;;;;5000214;28;20201;-65
2023/10/09 05:36:14;;;;;;;5.82;3.17;;;16.80;99.90;;;;;;4921969;28;20169;-66
2023/10/09 05:38:46;;;;;;;4.32;3.25;;;16.80;99.90;;;;;;4982727;28;20188;-65
2023/10/09 05:41:47;;;;;;;6.45;4.00;;;16.80;99.90;;;;;;5014789;28;20189;-66
2023/10/09 06:03:48;;;;;;;6.15;3.40;;;16.80;99.90;;;;;;5019049;28;20197;-64
2023/10/09 06:06:32;;;;;;;4.70;3.17;;;16.90;99.90;;;;;;5018636;28;20199;-64
2023/10/09 06:11:42;;;;;;;5.25;3.33;;;16.90;99.90;;;;;;5018883;28;20206;-65
2023/10/09 06:17:43;;;;;;;5.30;3.28;;;16.90;99.90;;;;;;5014393;28;20234;-65
2023/10/09 06:19:31;;;;;;;5.47;3.30;;;16.90;99.90;;;;;;5003074;28;20187;-65
2023/10/09 06:24:54;;;;;;;4.43;2.88;;;16.90;99.90;;;;;;4998842;28;20257;-66
2023/10/09 06:30:15;;;;;;;4.95;3.47;;;16.90;99.90;;;;;;5007906;28;20205;-65
2023/10/09 06:33:04;;;;;;;3.88;2.90;;;16.90;99.90;;;;;;5021998;28;20192;-66
2023/10/09 06:35:36;;;;;;;5.30;2.95;;;16.90;99.90;;;;;;5023645;28;20198;-66
2023/10/09 06:48:55;;;;;;;5.32;3.42;;;17.10;99.90;;;;;;4998645;28;20194;-66
2023/10/09 07:01:47;;;;;;;5.13;3.50;;;17.30;99.90;;;;;;5018224;28;20221;-66
2023/10/09 07:06:59;;;;;;;5.25;3.53;;;17.40;99.90;;;;;;5017822;28;20214;-66
2023/10/09 07:09:41;;;;;;;5.60;3.83;;;17.50;99.90;;;;;;5016573;28;20171;-65
2023/10/09 07:12:14;;;;;;;10.35;3.92;;;17.50;99.90;;;;;;5017234;28;20194;-66
2023/10/09 07:17:16;;;;;;;5.50;3.70;;;17.70;99.90;;;;;;5033604;28;20225;-66
2023/10/09 07:24:56;;;;;;;7.75;4.13;;;17.90;99.90;;;;;;5017580;28;20469;-66
2023/10/09 07:27:44;;;;;;;6.15;3.63;;;17.90;99.90;;;;;;5002675;28;20175;-66
2023/10/09 07:33:16;;;;;;;5.03;3.47;;;18.10;99.90;;;;;;4997880;28;20187;-66
2023/10/09 07:38:14;;;;;;;3.88;3.05;;;18.20;99.90;;;;;;4997496;28;20395;-66
2023/10/09 07:40:56;;;;;;;5.15;3.42;;;18.30;99.90;;;;;;5001198;28;20236;-66
2023/10/09 07:43:35;;;;;;;4.20;3.47;;;18.30;99.90;;;;;;5015829;28;20202;-66
2023/10/09 07:48:55;;;;;;;5.40;3.30;;;18.50;99.90;;;;;;5036846;28;20275;-66
2023/10/09 07:51:30;;;;;;;5.90;3.50;;;18.50;99.90;;;;;;5036167;28;20175;-66
2023/10/09 07:54:08;;;;;;;6.68;3.58;;;18.60;99.90;;;;;;5016412;28;20213;-66
2023/10/09 07:56:41;;;;;;;7.88;3.63;;;18.70;99.90;;;;;;5018411;28;20202;-66
2023/10/09 07:59:11;;;;;;;6.22;3.75;;;18.70;99.90;;;;;;5025695;28;20210;-65
2023/10/09 08:02:02;;;;;;;8.30;3.78;;;18.80;99.90;;;;;;5015804;28;20248;-66
2023/10/09 08:04:47;;;;;;;5.97;3.80;;;18.90;99.90;;;;;;5016017;28;20270;-65
2023/10/09 08:07:25;;;;;;;5.95;3.55;;;18.90;99.90;;;;;;5015601;28;20261;-66
2023/10/09 08:17:58;;;;;;;6.47;3.75;;;19.20;99.90;;;;;;5009765;28;20202;-66
2023/10/09 08:20:25;;;;;;;6.65;3.50;;;19.30;99.90;;;;;;5015758;28;20178;-66
2023/10/09 08:22:55;;;;;;;7.30;3.58;;;19.30;99.90;;;;;;5015642;28;20305;-67
2023/10/09 08:25:28;;;;;;;5.18;3.58;;;19.40;99.90;;;;;;5015924;28;20175;-66
2023/10/09 08:29:16;;;;;;;7.63;3.90;;;19.40;99.90;;;;;;5015700;28;20237;-66
2023/10/09 08:31:18;;;;;;;5.85;3.53;;;19.40;99.90;;;;;;5015584;28;20178;-66
2023/10/09 08:33:56;;;;;;;6.85;3.67;;;19.50;99.90;;;;;;5015471;28;20258;-66
2023/10/09 08:36:28;;;;;;;5.40;3.40;;;19.60;99.90;;;;;;5015037;28;20229;-65
2023/10/09 08:38:58;;;;;;;5.07;3.60;;;19.70;99.90;;;;;;5015284;28;20269;-66
2023/10/09 08:41:29;;;;;;;6.15;3.78;;;19.80;99.90;;;;;;5015354;28;20206;-66
2023/10/09 08:43:59;;;;;;;6.85;3.75;;;19.80;99.90;;;;;;5015422;28;20190;-65
2023/10/09 08:46:27;;;;;;;6.60;4.05;;;19.90;99.90;;;;;;5014500;28;20206;-66
2023/10/09 08:48:58;;;;;;;6.22;3.88;;;19.90;99.90;;;;;;5015254;28;20177;-66
2023/10/09 08:51:28;;;;;;;5.50;3.80;;;19.90;99.90;;;;;;5015244;28;20177;-66
2023/10/09 08:53:54;;;;;;;7.85;3.88;;;20.00;99.90;;;;;;5012144;28;20285;-66
2023/10/09 08:56:23;;;;;;;5.43;3.50;;;20.00;99.90;;;;;;4995555;28;20179;-66
2023/10/09 08:58:58;;;;;;;5.57;3.80;;;20.10;99.90;;;;;;4995338;28;20217;-66
2023/10/09 09:01:24;;;;;;;11.05;4.00;;;20.10;99.90;;;;;;4995917;28;20178;-66
2023/10/09 09:03:56;;;;;;;6.78;3.58;;;20.10;99.90;;;;;;4995355;28;20225;-66
2023/10/09 09:06:25;;;;;;;7.07;4.38;;;20.20;99.90;;;;;;4995486;28;20207;-65
2023/10/09 09:08:59;;;;;;;6.75;3.58;;;20.20;99.90;;;;;;4995102;28;20167;-65
2023/10/09 09:11:25;;;;;;;6.07;3.80;;;20.20;99.90;;;;;;5029681;28;20206;-66
2023/10/09 09:13:53;;;;;;;6.10;3.45;;;20.20;99.90;;;;;;5035414;28;20178;-66
2023/10/09 09:16:22;;;;;;;4.15;3.08;;;20.30;99.90;;;;;;5031453;28;20206;-66
2023/10/09 09:19:00;;;;;;;5.43;3.65;;;20.40;99.90;;;;;;5015015;28;20182;-66
2023/10/09 09:21:27;;;;;;;7.72;3.67;;;20.40;99.90;;;;;;5014660;28;20194;-67
2023/10/09 09:23:55;;;;;;;6.57;3.58;;;20.50;99.90;;;;;;5014791;28;20198;-66
2023/10/09 09:26:37;;;;;;;8.07;3.90;;;20.60;99.90;;;;;;5014040;28;20190;-66
2023/10/09 09:29:07;;;;;;;6.10;3.20;;;20.70;99.90;;;;;;5014462;28;20281;-66
2023/10/09 09:31:42;;;;;;;4.05;3.05;;;20.80;99.90;;;;;;5014618;28;20209;-66
2023/10/09 09:34:14;;;;;;;5.40;3.40;;;21.00;99.90;;;;;;5014374;28;20202;-67
2023/10/09 09:36:54;;;;;;;6.05;3.78;;;21.10;99.90;;;;;;5014241;28;20190;-65
2023/10/09 09:39:30;;;;;;;6.63;3.50;;;21.20;99.90;;;;;;5011854;28;20214;-66
2023/10/09 09:41:57;;;;;;;5.13;3.65;;;21.30;99.90;;;;;;5015485;28;20181;-66
2023/10/09 09:44:26;;;;;;;7.72;3.63;;;21.40;99.90;;;;;;5017947;28;20203;-66
2023/10/09 09:46:55;;;;;;;5.38;3.92;;;21.50;99.90;;;;;;5014304;28;20291;-66
2023/10/09 09:49:23;;;;;;;4.57;2.97;;;21.80;99.90;;;;;;5013987;28;20178;-66
2023/10/09 09:51:51;;;;;;;5.20;3.45;;;22.00;99.90;;;;;;5013751;28;20194;-66
2023/10/09 09:54:17;;;;;;;5.30;3.25;;;22.20;99.90;;;;;;5013841;28;20202;-66
2023/10/09 09:56:52;;;;;;;4.53;3.13;;;22.20;99.90;;;;;;5014273;28;20213;-66
2023/10/09 09:59:27;;;;;;;5.07;3.15;;;22.20;99.90;;;;;;5013844;28;20205;-66
2023/10/09 10:02:06;;;;;;;7.40;3.50;;;22.30;99.90;;;;;;5013797;28;20190;-66
2023/10/09 10:04:35;;;;;;;4.53;3.15;;;22.40;99.90;;;;;;5013767;28;20240;-66
2023/10/09 10:07:08;;;;;;;5.15;3.47;;;22.60;99.90;;;;;;5010693;28;20267;-66
2023/10/09 10:09:39;;;;;;;4.38;3.03;;;22.80;99.90;;;;;;5023158;28;20273;-67
2023/10/09 10:12:11;;;;;;;5.50;3.20;;;23.00;99.90;;;;;;5014186;28;20171;-67
2023/10/09 10:14:59;;;;;;;11.25;6.95;;;23.30;99.90;;;;;;5014004;28;20166;-66
2023/10/09 10:17:27;;;;;;;11.43;6.13;;;23.50;99.90;;;;;;5010721;28;20179;-67
2023/10/09 10:20:25;;;;;;;6.40;4.35;;;23.60;99.90;;;;;;5013581;28;20167;-65
2023/10/09 10:22:47;;;;;;;7.65;4.90;;;23.70;99.90;;;;;;5002643;28;20455;-65
2023/10/09 10:25:41;;;;;;;6.40;3.83;;;24.00;99.90;;;;;;4994462;28;20172;-65
2023/10/09 10:28:39;;;;;;;4.07;3.15;;;24.30;99.90;;;;;;4994011;28;20227;-65
2023/10/09 10:31:07;;;;;;;6.32;4.00;;;24.40;99.90;;;;;;4994467;28;20274;-66
2023/10/09 10:33:54;;;;;;;5.45;3.70;;;24.60;99.90;;;;;;5012977;28;20199;-67
2023/10/09 10:36:29;;;;;;;5.20;3.90;;;24.80;99.90;;;;;;5023726;28;20264;-66
2023/10/09 10:39:10;;;;;;;4.00;3.03;;;25.10;99.90;;;;;;5037209;28;20373;-67
2023/10/09 10:41:50;;;;;;;5.28;3.05;;;25.20;99.90;;;;;;5037117;28;20511;-67
2023/10/09 10:44:36;;;;;;;3.95;2.80;;;25.30;99.90;;;;;;5017258;28;20198;-67
2023/10/09 10:47:22;;;;;;;3.60;2.55;;;25.30;99.90;;;;;;5015659;28;20174;-67
2023/10/09 10:49:52;;;;;;;5.47;3.00;;;25.40;99.90;;;;;;5016820;28;20163;-68
2023/10/09 10:52:35;;;;;;;4.55;2.78;;;25.30;99.90;;;;;;5016712;28;20198;-67
2023/10/09 10:58:10;;;;;;;6.40;3.03;;;25.30;99.90;;;;;;5019473;28;20233;-67
2023/10/09 11:03:35;;;;;;;5.93;2.90;;;25.20;99.90;;;;;;5017389;28;20229;-66
2023/10/09 11:06:13;;;;;;;4.75;2.90;;;25.30;99.90;;;;;;5016514;28;20221;-66
2023/10/09 11:08:59;;;;;;;4.18;2.88;;;25.40;99.90;;;;;;5013721;28;20199;-67
2023/10/09 11:11:41;;;;;;;5.25;2.78;;;25.50;99.90;;;;;;5011650;28;20165;-67
2023/10/09 11:14:23;;;;;;;4.72;2.90;;;25.60;99.90;;;;;;5019489;28;20170;-66
2023/10/09 11:16:49;;;;;;;3.97;2.65;;;25.60;99.90;;;;;;5016687;28;20221;-66
2023/10/09 11:24:34;;;;;;;5.55;2.92;;;25.80;99.90;;;;;;5009273;28;20278;-67
2023/10/09 11:27:18;;;;;;;3.83;2.42;;;25.80;99.90;;;;;;5016500;28;20199;-67
2023/10/09 11:29:53;;;;;;;4.30;2.72;;;25.90;99.90;;;;;;5022188;28;20180;-67
2023/10/09 11:32:23;;;;;;;4.10;2.63;;;26.00;99.90;;;;;;5036095;28;20249;-67
2023/10/09 11:34:53;;;;;;;5.18;2.85;;;26.00;99.90;;;;;;5036336;28;20177;-67
2023/10/09 11:40:00;;;;;;;4.45;3.17;;;26.20;99.90;;;;;;5037192;28;20250;-67
2023/10/09 11:42:37;;;;;;;4.95;3.30;;;26.30;99.90;;;;;;5034414;28;20265;-67
2023/10/09 11:45:24;;;;;;;4.50;3.40;;;26.30;99.90;;;;;;5016139;28;20190;-67
2023/10/09 11:48:03;;;;;;;3.88;2.83;;;26.40;99.90;;;;;;5015979;28;20236;-66
2023/10/09 11:53:43;;;;;;;5.97;3.20;;;26.30;99.90;;;;;;5017086;28;20159;-67
2023/10/09 11:56:13;;;;;;;5.00;2.70;;;26.20;99.90;;;;;;5016559;28;20178;-67
2023/10/09 11:58:41;;;;;;;5.43;2.88;;;26.20;99.90;;;;;;5016492;28;20179;-66
2023/10/09 12:01:17;;;;;;;4.10;2.70;;;26.10;99.90;;;;;;5015733;28;20178;-67
2023/10/09 12:03:49;;;;;;;4.05;2.72;;;26.00;99.90;;;;;;5015676;28;20221;-67
2023/10/09 12:06:18;;;;;;;4.60;2.95;;;26.00;99.90;;;;;;5005548;28;20262;-66
2023/10/09 12:08:48;;;;;;;5.28;2.75;;;25.90;99.90;;;;;;5009650;28;20199;-67
2023/10/09 12:11:15;;;;;;;3.88;2.63;;;25.90;99.90;;;;;;5001382;28;20209;-67
2023/10/09 12:13:43;;;;;;;4.50;2.90;;;25.90;99.90;;;;;;5015761;28;20178;-66
2023/10/09 12:16:09;;;;;;;4.25;3.00;;;25.90;99.90;;;;;;5009345;28;20203;-67
2023/10/09 12:18:40;;;;;;;4.25;3.17;;;25.90;99.90;;;;;;4996048;28;20199;-67
2023/10/09 12:21:06;;;;;;;4.90;3.03;;;25.90;99.90;;;;;;5008345;28;20194;-67
2023/10/09 12:23:35;;;;;;;5.80;3.10;;;25.80;99.90;;;;;;4998143;28;20269;-66
2023/10/09 12:26:02;;;;;;;4.50;2.92;;;25.80;99.90;;;;;;5007699;28;20286;-67
2023/10/09 12:28:29;;;;;;;4.82;2.95;;;25.80;99.90;;;;;;5015744;28;20174;-67
2023/10/09 12:31:01;;;;;;;4.03;2.92;;;25.80;99.90;;;;;;5015579;28;20166;-67
2023/10/09 12:33:27;;;;;;;4.53;2.47;;;25.80;99.90;;;;;;5015603;28;20170;-67
2023/10/09 12:36:05;;;;;;;5.07;3.22;;;25.80;99.90;;;;;;5015466;28;20444;-67
2023/10/09 12:38:33;;;;;;;7.43;3.20;;;25.80;99.90;;;;;;5015354;28;20222;-67
2023/10/09 12:41:17;;;;;;;3.78;2.60;;;25.80;99.90;;;;;;5015570;28;20202;-67
2023/10/09 12:43:45;;;;;;;3.78;2.85;;;25.80;99.90;;;;;;5014537;28;20209;-67
2023/10/09 12:46:16;;;;;;;4.32;2.83;;;25.80;99.90;;;;;;5015260;28;20194;-67
2023/10/09 12:48:48;;;;;;;5.22;2.92;;;25.80;99.90;;;;;;5014901;28;20189;-66
2023/10/09 12:51:17;;;;;;;5.50;3.20;;;25.80;99.90;;;;;;5014765;28;20210;-67
2023/10/09 12:53:50;;;;;;;5.28;2.88;;;25.80;99.90;;;;;;5015425;28;20181;-67
2023/10/09 12:56:18;;;;;;;3.92;2.50;;;25.80;99.90;;;;;;5014445;28;20198;-67
2023/10/09 12:58:55;;;;;;;3.95;2.67;;;25.80;99.90;;;;;;5015359;28;20179;-67
2023/10/09 13:01:21;;;;;;;5.13;3.00;;;25.80;99.90;;;;;;5014833;28;20203;-67
2023/10/09 13:03:49;;;;;;;4.75;2.80;;;25.80;99.90;;;;;;5015654;28;20329;-67
2023/10/09 13:06:15;;;;;;;3.22;2.53;;;25.80;99.90;;;;;;5014848;28;20174;-67
2023/10/09 13:08:42;;;;;;;4.03;2.72;;;25.80;99.90;;;;;;5014749;28;20262;-67
2023/10/09 13:11:11;;;;;;;4.07;2.80;;;25.80;99.90;;;;;;5015061;28;20186;-66
2023/10/09 13:13:42;;;;;;;3.78;2.63;;;25.70;99.90;;;;;;5022251;28;20205;-67
2023/10/09 13:16:24;;;;;;;3.92;2.60;;;25.70;99.90;;;;;;4995281;28;20174;-67
2023/10/09 13:18:53;;;;;;;4.45;3.03;;;25.60;99.90;;;;;;5006053;28;20277;-67
2023/10/09 13:21:20;;;;;;;5.95;2.78;;;25.60;99.90;;;;;;5011606;28;20179;-67
2023/10/09 13:23:50;;;;;;;4.65;2.70;;;25.60;99.90;;;;;;4996260;28;20191;-67
2023/10/09 13:26:34;;;;;;;4.35;2.83;;;25.50;99.90;;;;;;5003993;28;20199;-66
2023/10/09 13:29:01;;;;;;;4.63;2.70;;;25.50;99.90;;;;;;5011413;28;20185;-67
2023/10/09 13:31:33;;;;;;;4.60;2.78;;;25.50;99.90;;;;;;5014164;28;20230;-67
2023/10/09 13:34:00;;;;;;;5.38;2.85;;;25.40;99.90;;;;;;5014982;28;20543;-67
2023/10/09 13:36:26;;;;;;;5.38;2.65;;;25.40;99.90;;;;;;5014800;28;20178;-67
2023/10/09 13:41:46;;;;;;;5.05;2.92;;;25.30;99.90;;;;;;5015482;28;20163;-67
2023/10/09 13:44:15;;;;;;;5.15;2.92;;;25.30;99.90;;;;;;5014524;28;20222;-67
2023/10/09 13:46:44;;;;;;;4.70;2.75;;;25.20;99.90;;;;;;5014426;28;20174;-66
2023/10/09 13:49:14;;;;;;;3.58;2.63;;;25.20;99.90;;;;;;5014630;28;20205;-66
2023/10/09 13:51:44;;;;;;;5.70;2.95;;;25.20;99.90;;;;;;5014151;28;20183;-66
2023/10/09 13:54:21;;;;;;;4.97;3.38;;;25.10;99.90;;;;;;5014326;28;20252;-66
2023/10/09 13:56:52;;;;;;;4.50;2.45;;;25.10;99.90;;;;;;5014051;28;20245;-67
2023/10/09 13:59:23;;;;;;;4.95;2.97;;;25.10;99.90;;;;;;5014663;28;20265;-66
2023/10/09 14:01:49;;;;;;;4.93;3.13;;;25.00;99.90;;;;;;5014005;28;20226;-66
2023/10/09 14:04:19;;;;;;;4.43;2.97;;;25.00;99.90;;;;;;5014275;28;20195;-66
2023/10/09 14:06:44;;;;;;;6.78;3.00;;;25.00;99.90;;;;;;5014366;28;20221;-66
2023/10/09 14:09:27;;;;;;;3.95;2.70;;;25.00;99.90;;;;;;5024770;28;20182;-66
2023/10/09 14:12:07;;;;;;;5.07;3.15;;;24.90;99.90;;;;;;5018124;28;20163;-66
2023/10/09 14:14:40;;;;;;;4.07;2.78;;;24.90;99.90;;;;;;5017970;28;20190;-66
2023/10/09 14:17:13;;;;;;;4.90;3.10;;;24.90;99.90;;;;;;5018304;28;20193;-66
2023/10/09 14:19:47;;;;;;;4.32;3.03;;;24.80;99.90;;;;;;5017553;28;20214;-66
2023/10/09 14:22:20;;;;;;;4.07;2.88;;;24.80;99.90;;;;;;5014399;28;20167;-66
2023/10/09 14:24:55;;;;;;;4.80;2.90;;;24.80;99.90;;;;;;4998180;28;20246;-66
2023/10/09 14:27:23;;;;;;;5.18;3.05;;;24.80;99.90;;;;;;5015900;28;20177;-66
2023/10/09 14:29:49;;;;;;;4.85;2.70;;;24.70;99.90;;;;;;5017738;28;20258;-66
2023/10/09 14:32:18;;;;;;;5.80;3.08;;;24.70;99.90;;;;;;5017419;28;20183;-66
2023/10/09 14:34:50;;;;;;;5.07;3.22;;;24.70;99.90;;;;;;5017891;28;20190;-66
2023/10/09 14:37:20;;;;;;;5.85;2.97;;;24.70;99.90;;;;;;5013880;28;20222;-67
2023/10/09 14:39:51;;;;;;;4.45;2.78;;;24.70;99.90;;;;;;4998321;28;20325;-66
2023/10/09 14:42:22;;;;;;;6.20;3.20;;;24.70;99.90;;;;;;5004564;28;20522;-66
2023/10/09 14:44:49;;;;;;;5.93;2.75;;;24.80;99.90;;;;;;5026577;28;20251;-66
2023/10/09 14:47:15;;;;;;;4.45;2.83;;;24.80;99.90;;;;;;5017161;28;20224;-66
2023/10/09 14:49:46;;;;;;;6.85;2.80;;;24.80;99.90;;;;;;5017034;28;20221;-66
2023/10/09 14:52:16;;;;;;;5.72;2.90;;;24.80;99.90;;;;;;5017039;28;20179;-66
2023/10/09 14:54:46;;;;;;;5.22;3.28;;;24.80;99.90;;;;;;5017081;28;20206;-66
2023/10/09 14:57:12;;;;;;;4.85;3.03;;;24.80;99.90;;;;;;4997542;28;20179;-66
2023/10/09 14:59:43;;;;;;;4.82;3.00;;;24.80;99.90;;;;;;5001955;28;20240;-66
2023/10/09 15:02:08;;;;;;;5.82;3.30;;;24.80;99.90;;;;;;5017349;28;20174;-66
2023/10/09 15:04:36;;;;;;;6.15;3.10;;;24.80;99.90;;;;;;5016838;28;20212;-66
2023/10/09 15:07:06;;;;;;;6.82;2.90;;;24.70;99.90;;;;;;5035260;28;20265;-66
2023/10/09 15:09:34;;;;;;;5.97;2.85;;;24.70;99.90;;;;;;5014641;28;20175;-66
2023/10/09 15:12:00;;;;;;;5.25;3.10;;;24.70;99.90;;;;;;5003212;28;20201;-67
2023/10/09 15:14:28;;;;;;;4.07;2.47;;;24.60;99.90;;;;;;5017045;28;20238;-66
2023/10/09 15:16:56;;;;;;;4.60;2.83;;;24.50;99.90;;;;;;5016868;28;20174;-66
2023/10/09 15:19:29;;;;;;;4.88;2.80;;;24.50;99.90;;;;;;5017404;28;20178;-66
2023/10/09 15:21:55;;;;;;;5.68;3.17;;;24.40;99.90;;;;;;5021053;28;20179;-80
2023/10/09 15:24:25;;;;;;;5.05;3.05;;;24.40;99.90;;;;;;5017169;28;20257;-79
2023/10/09 15:26:57;;;;;;;4.05;2.70;;;24.30;99.90;;;;;;5025475;28;20184;-79
2023/10/09 15:29:28;;;;;;;7.28;3.33;;;24.30;99.90;;;;;;5028016;28;20180;-78
2023/10/09 15:32:04;;;;;;;4.53;2.88;;;24.30;99.90;;;;;;5014153;28;20236;-79
2023/10/09 15:34:36;;;;;;;5.18;3.33;;;24.20;99.90;;;;;;5016614;28;20238;-79
2023/10/09 15:37:07;;;;;;;4.47;2.78;;;24.20;99.90;;;;;;5016015;28;20206;-80
2023/10/09 15:39:36;;;;;;;4.00;3.00;;;24.10;99.90;;;;;;5033599;28;20171;-80
2023/10/09 15:42:06;;;;;;;10.10;3.13;;;24.10;99.90;;;;;;5033930;28;20213;-79
2023/10/09 15:44:34;;;;;;;4.10;3.00;;;24.10;99.90;;;;;;5035718;28;20183;-77
2023/10/09 15:47:00;;;;;;;4.55;2.80;;;24.00;99.90;;;;;;5043927;28;20171;-80
2023/10/09 15:49:33;;;;;;;4.38;2.65;;;24.00;99.90;;;;;;5016549;28;20206;-79
2023/10/09 15:52:01;;;;;;;7.63;2.83;;;23.90;99.90;;;;;;5018995;28;20171;-80
2023/10/09 15:54:28;;;;;;;4.32;2.97;;;23.90;99.90;;;;;;5016616;28;20205;-79
2023/10/09 15:56:55;;;;;;;4.35;2.95;;;23.90;99.90;;;;;;5016646;28;20173;-79
2023/10/09 15:59:21;;;;;;;5.53;2.90;;;23.90;99.90;;;;;;5016581;28;20194;-76
2023/10/09 16:01:46;;;;;;;4.20;2.83;;;23.80;99.90;;;;;;5016581;28;20266;-78
2023/10/09 16:04:12;;;;;;;4.72;3.00;;;23.80;99.90;;;;;;5016460;28;20226;-78
2023/10/09 16:06:42;;;;;;;5.53;3.15;;;23.80;99.90;;;;;;5024323;28;20170;-79